Time;durP1;ratioP1;P1;durP2;ratioP2;P2;SDS_P1;SDS_P2;PMS_P1;PMS_P2;Temp;Humidity;BMP_temperature;BMP_pressure;BME280_temperature;BME280_humidity;BME280_pressure;Samples;Min_cycle;Max_cycle;Signal;HPM_P1;HPM_P2
2022/08/09 00:02:14;;;;;;;7.47;3.42;;;;;;;-148.88;89.60;76309.44;4993959;28;20089;-83
2022/08/09 00:04:39;;;;;;;5.90;3.45;;;;;;;-148.88;91.31;76325.69;4993769;28;20041;-82
2022/08/09 00:07:05;;;;;;;4.93;3.30;;;;;;;-148.88;91.48;76327.72;4993706;28;20026;-82
2022/08/09 00:09:30;;;;;;;6.38;3.45;;;;;;;-148.88;91.07;76329.75;4993666;28;20101;-83
2022/08/09 00:11:55;;;;;;;5.18;2.95;;;;;;;-148.88;90.79;76315.53;4993633;28;20027;-83
2022/08/09 00:14:22;;;;;;;4.22;3.00;;;;;;;-148.88;90.39;76297.25;4993764;28;20481;-83
2022/08/09 00:16:47;;;;;;;8.05;3.53;;;;;;;-148.88;90.28;76293.19;4993765;28;20025;-82
2022/08/09 00:19:13;;;;;;;6.22;3.38;;;;;;;-148.88;89.83;76281.00;4993887;28;20023;-83
2022/08/09 00:21:39;;;;;;;4.60;2.88;;;;;;;-148.88;89.19;76272.88;4992542;28;20508;-83
2022/08/09 00:24:04;;;;;;;6.55;3.08;;;;;;;-148.88;88.69;76264.75;4993914;28;20106;-83
2022/08/09 00:26:30;;;;;;;6.97;3.22;;;;;;;-148.88;88.60;76260.69;4994012;28;20396;-82
2022/08/09 00:28:56;;;;;;;5.95;2.85;;;;;;;-148.88;88.46;76260.69;4992436;28;20105;-83
2022/08/09 00:31:23;;;;;;;6.43;2.95;;;;;;;-148.88;88.32;76258.66;4993526;28;20400;-83
2022/08/09 00:33:49;;;;;;;5.45;2.60;;;;;;;-148.88;88.20;76252.56;4993634;28;20026;-83
2022/08/09 00:36:14;;;;;;;6.10;2.75;;;;;;;-148.88;88.59;76260.69;4993843;28;20109;-83
2022/08/09 00:38:40;;;;;;;4.63;3.10;;;;;;;-148.88;89.49;76264.75;4993510;28;20113;-83
2022/08/09 00:41:06;;;;;;;4.53;2.70;;;;;;;-148.88;89.84;76258.66;4993633;28;20018;-83
2022/08/09 00:43:33;;;;;;;5.25;3.00;;;;;;;-148.88;88.79;76262.72;4993430;28;20378;-83
2022/08/09 00:45:58;;;;;;;4.95;2.63;;;;;;;-148.88;89.91;76276.94;4993821;28;20531;-83
2022/08/09 00:48:23;;;;;;;6.25;3.20;;;;;;;-148.88;91.62;76307.41;4993544;28;20030;-83
2022/08/09 00:50:49;;;;;;;5.65;2.85;;;;;;;-148.88;92.87;76321.63;4993846;28;20037;-82
2022/08/09 00:53:15;;;;;;;5.75;3.70;;;;;;;-148.88;92.87;76329.75;4993911;28;20023;-83
2022/08/09 00:55:40;;;;;;;6.43;3.22;;;;;;;-148.88;93.30;76319.59;4993394;28;20030;-82
2022/08/09 00:58:06;;;;;;;5.60;3.65;;;;;;;-148.88;93.50;76327.72;4995119;28;20018;-82
2022/08/09 01:00:32;;;;;;;8.07;3.88;;;;;;;-148.88;93.23;76325.69;4997157;28;20030;-82
2022/08/09 01:03:21;;;;;;;8.45;3.75;;;;;;;-148.88;94.28;76323.66;4997218;28;20026;-83
2022/08/09 01:05:56;;;;;;;5.53;3.80;;;;;;;-148.88;94.83;76329.75;4997110;28;20056;-83
2022/08/09 01:08:41;;;;;;;7.78;3.50;;;;;;;-148.88;94.51;76309.44;4997011;28;20026;-83
2022/08/09 01:11:45;;;;;;;6.15;3.33;;;;;;;-148.88;93.85;76307.41;4997130;28;20443;-83
2022/08/09 01:14:22;;;;;;;5.22;3.55;;;;;;;-148.88;92.86;76301.31;4994336;28;20037;-83
2022/08/09 01:16:54;;;;;;;4.50;3.30;;;;;;;-148.88;92.58;76289.13;4997060;28;20112;-82
2022/08/09 01:19:36;;;;;;;4.95;2.90;;;;;;;-148.88;91.95;76285.06;4997210;28;20030;-84
2022/08/09 01:22:29;;;;;;;4.43;2.95;;;;;;;-148.88;91.50;76301.31;4996481;28;20022;-83
2022/08/09 01:25:25;;;;;;;6.73;2.90;;;;;;;-148.88;91.93;76297.25;4997014;28;20022;-82
2022/08/09 01:27:53;;;;;;;6.75;2.90;;;;;;;-148.88;92.12;76305.38;4996740;28;20125;-83
2022/08/09 01:30:21;;;;;;;4.53;2.88;;;;;;;-148.88;92.85;76293.19;4996312;28;20034;-84
2022/08/09 01:32:50;;;;;;;4.57;2.60;;;;;;;-148.88;92.41;76293.19;4996952;28;20026;-84
2022/08/09 01:35:23;;;;;;;5.70;2.67;;;;;;;-148.88;92.54;76281.00;4996676;28;20030;-84
2022/08/09 01:37:50;;;;;;;;;;;;;;;-148.88;92.06;76293.19;4996798;28;20061;-83
2022/08/09 01:40:18;;;;;;;7.55;3.00;;;;;;;-148.88;92.03;76309.44;4996584;28;20273;-84
2022/08/09 01:42:45;;;;;;;4.05;2.63;;;;;;;-148.88;92.82;76305.38;4996269;28;20023;-84
2022/08/09 01:45:10;;;;;;;4.70;2.67;;;;;;;-148.88;92.20;76313.50;4996126;28;20061;-84
2022/08/09 01:47:39;;;;;;;3.97;2.47;;;;;;;-148.88;92.48;76311.47;4996554;28;20485;-83
2022/08/09 01:50:06;;;;;;;5.53;2.80;;;;;;;-148.88;92.17;76309.44;4996531;28;20097;-84
2022/08/09 01:52:33;;;;;;;4.70;2.50;;;;;;;-148.88;92.79;76299.28;4995945;28;20034;-85
2022/08/09 01:55:00;;;;;;;6.18;2.83;;;;;;;-148.88;92.67;76307.41;4996207;28;20105;-83
2022/08/09 01:57:31;;;;;;;5.28;3.00;;;;;;;-148.88;93.33;76317.56;4997230;28;20050;-85
2022/08/09 02:00:01;;;;;;;8.60;3.30;;;;;;;-148.88;93.72;76329.75;4998128;28;20113;-83
2022/08/09 02:02:29;;;;;;;5.15;2.92;;;;;;;-148.88;94.22;76350.06;4996337;28;20022;-83
2022/08/09 02:04:57;;;;;;;3.88;2.80;;;;;;;-148.88;94.25;76358.19;4996299;28;20093;-83
2022/08/09 02:07:25;;;;;;;6.85;3.20;;;;;;;-148.88;95.00;76370.38;4996197;28;20080;-83
2022/08/09 02:10:00;;;;;;;3.80;3.03;;;;;;;-148.88;95.52;76366.31;4995054;28;20481;-83
2022/08/09 02:12:27;;;;;;;4.95;2.80;;;;;;;-148.88;95.27;76362.25;4996070;28;20028;-83
2022/08/09 02:14:54;;;;;;;5.45;3.00;;;;;;;-148.88;95.20;76362.25;4995438;28;20072;-83
2022/08/09 02:17:25;;;;;;;4.75;2.90;;;;;;;-148.88;95.55;76350.06;4995403;28;20033;-83
2022/08/09 02:19:51;;;;;;;4.68;2.78;;;;;;;-148.88;94.87;76358.19;4995965;28;20485;-83
2022/08/09 02:22:31;;;;;;;8.32;3.50;;;;;;;-148.88;95.69;76368.34;4996059;28;20037;-83
2022/08/09 02:24:59;;;;;;;5.60;3.53;;;;;;;-148.88;96.52;76378.50;4996250;28;20037;-82
2022/08/09 02:27:29;;;;;;;7.65;3.40;;;;;;;-148.88;97.15;76372.41;4996151;28;20485;-83
2022/08/09 02:29:56;;;;;;;6.00;3.17;;;;;;;-148.88;98.36;76366.31;4996034;28;20050;-83
2022/08/09 02:32:23;;;;;;;6.47;3.80;;;;;;;-148.88;99.02;76382.56;4995874;28;20556;-83
2022/08/09 02:34:55;;;;;;;7.50;4.18;;;;;;;-148.88;99.74;76386.63;4995992;28;20058;-83
2022/08/09 02:37:24;;;;;;;7.18;5.28;;;;;;;-148.88;100.00;76388.66;4994285;28;20124;-82
2022/08/09 02:39:56;;;;;;;8.90;5.25;;;;;;;-148.88;100.00;76400.84;4995409;28;20152;-82
2022/08/09 02:42:27;;;;;;;7.10;4.90;;;;;;;-148.88;100.00;76390.69;4993943;28;20026;-83
2022/08/09 02:45:00;;;;;;;7.30;5.20;;;;;;;-148.88;100.00;76400.84;4995344;28;20033;-82
2022/08/09 02:47:28;;;;;;;9.40;4.70;;;;;;;-148.88;100.00;76398.81;4995520;28;20034;-82
2022/08/09 02:49:56;;;;;;;6.70;4.90;;;;;;;-148.88;100.00;76415.06;4994990;28;20113;-83
2022/08/09 02:52:26;;;;;;;8.55;4.90;;;;;;;-148.88;100.00;76415.06;4995620;28;20031;-82
2022/08/09 02:54:53;;;;;;;7.47;4.70;;;;;;;-148.88;100.00;76415.06;4995163;28;20041;-82
2022/08/09 02:57:19;;;;;;;7.45;4.88;;;;;;;-148.88;100.00;76398.81;4993936;28;20026;-83
2022/08/09 02:59:47;;;;;;;6.97;5.03;;;;;;;-148.88;100.00;76402.88;4995063;28;20018;-83
2022/08/09 03:02:15;;;;;;;7.80;4.95;;;;;;;-148.88;100.00;76406.94;4995106;28;20097;-83
2022/08/09 03:04:42;;;;;;;11.73;5.18;;;;;;;-148.88;100.00;76415.06;4998626;28;20032;-83
2022/08/09 03:07:09;;;;;;;7.93;5.05;;;;;;;-148.88;100.00;76427.28;4995070;28;20050;-83
2022/08/09 03:09:35;;;;;;;8.90;5.90;;;;;;;-148.88;100.00;76431.34;4995005;28;20034;-83
2022/08/09 03:12:01;;;;;;;9.65;5.95;;;;;;;-148.88;100.00;76431.34;4995645;28;20388;-82
2022/08/09 03:14:30;;;;;;;8.80;5.85;;;;;;;-148.88;100.00;76451.66;4994959;28;20054;-83
2022/08/09 03:16:58;;;;;;;9.27;5.22;;;;;;;-148.88;100.00;76469.94;4994674;28;20148;-83
2022/08/09 03:19:23;;;;;;;9.43;5.55;;;;;;;-148.88;100.00;76455.72;4994751;28;20026;-82
2022/08/09 03:21:50;;;;;;;8.27;5.32;;;;;;;-148.88;100.00;76447.59;4992956;28;20022;-83
2022/08/09 03:24:16;;;;;;;12.68;6.20;;;;;;;-148.88;100.00;76451.66;4994920;28;20023;-81
2022/08/09 03:26:43;;;;;;;8.63;5.90;;;;;;;-148.88;100.00;76459.78;4995390;28;20097;-82
2022/08/09 03:29:10;;;;;;;7.90;5.05;;;;;;;-148.88;100.00;76463.84;4995188;28;20485;-82
2022/08/09 03:31:38;;;;;;;13.05;5.72;;;;;;;-148.88;100.00;76463.84;4995021;28;20069;-82
2022/08/09 03:34:04;;;;;;;6.63;5.43;;;;;;;-148.88;100.00;76467.91;4993800;28;20046;-82
2022/08/09 03:36:29;;;;;;;7.22;5.40;;;;;;;-148.88;100.00;76482.13;4993870;28;20033;-81
2022/08/09 03:38:55;;;;;;;7.25;5.63;;;;;;;-148.88;100.00;76471.97;4995007;28;20022;-82
2022/08/09 03:41:21;;;;;;;9.60;5.97;;;;;;;-148.88;100.00;76471.97;4995264;28;20499;-82
2022/08/09 03:43:46;;;;;;;8.75;6.30;;;;;;;-148.88;100.00;76484.16;4995446;28;20030;-82
2022/08/09 03:46:12;;;;;;;7.85;5.90;;;;;;;-148.88;100.00;76471.97;4995399;28;20022;-82
2022/08/09 03:48:38;;;;;;;8.40;6.28;;;;;;;-148.88;100.00;76467.91;4995173;28;20512;-82
2022/08/09 03:51:07;;;;;;;11.50;6.25;;;;;;;-148.88;100.00;76476.03;4993996;28;20041;-82
2022/08/09 03:53:37;;;;;;;10.15;6.25;;;;;;;-148.88;100.00;76484.16;4994341;28;20080;-82
2022/08/09 03:56:03;;;;;;;9.15;6.40;;;;;;;-148.88;100.00;76482.13;4994801;28;20029;-81
2022/08/09 03:58:29;;;;;;;12.27;6.80;;;;;;;-148.88;100.00;76492.28;4994179;28;20485;-81
2022/08/09 04:00:55;;;;;;;12.00;6.65;;;;;;;-148.88;100.00;76496.34;4993005;28;20075;-81
2022/08/09 04:03:21;;;;;;;8.68;6.90;;;;;;;-148.88;100.00;76502.44;4994148;28;20118;-82
2022/08/09 04:05:46;;;;;;;11.35;6.93;;;;;;;-148.88;100.00;76502.44;4993917;28;20050;-81
2022/08/09 04:08:12;;;;;;;9.80;6.78;;;;;;;-148.88;100.00;76508.53;4994049;28;20034;-81
2022/08/09 04:10:37;;;;;;;11.70;6.25;;;;;;;-148.88;100.00;76484.16;4994084;28;20033;-82
2022/08/09 04:13:08;;;;;;;12.20;6.85;;;;;;;-148.88;100.00;76492.28;4993160;28;20072;-82
2022/08/09 04:15:35;;;;;;;11.57;6.93;;;;;;;-148.88;100.00;76498.38;4994597;28;20031;-82
2022/08/09 04:18:00;;;;;;;9.43;6.30;;;;;;;-148.88;100.00;76498.38;4994628;28;20440;-82
2022/08/09 04:20:26;;;;;;;11.18;6.95;;;;;;;-148.88;100.00;76502.44;4993851;28;20701;-82
2022/08/09 04:22:51;;;;;;;10.05;6.75;;;;;;;-148.88;100.00;76512.59;4993534;28;20404;-82
2022/08/09 04:25:16;;;;;;;11.63;7.65;;;;;;;-148.88;100.00;76518.69;4994773;28;20485;-82
2022/08/09 04:27:42;;;;;;;11.32;8.18;;;;;;;-148.88;100.00;76528.84;4995140;28;20034;-82
2022/08/09 04:30:13;;;;;;;13.70;8.50;;;;;;;-148.88;100.00;76532.91;4993518;28;20088;-82
2022/08/09 04:32:39;;;;;;;15.80;8.50;;;;;;;-148.88;100.00;76528.84;4995776;28;20018;-82
2022/08/09 04:35:07;;;;;;;13.02;8.85;;;;;;;-148.88;100.00;76536.97;4996813;28;20562;-81
2022/08/09 04:37:33;;;;;;;13.18;8.60;;;;;;;-148.88;100.00;76528.84;4997569;28;20030;-82
2022/08/09 04:39:58;;;;;;;15.10;9.80;;;;;;;-148.88;100.00;76524.78;4997407;28;20081;-81
2022/08/09 04:42:30;;;;;;;14.00;9.13;;;;;;;-148.88;100.00;76528.84;4997329;28;20026;-82
2022/08/09 04:44:56;;;;;;;14.50;8.70;;;;;;;-148.88;100.00;76541.03;4997567;28;20026;-83
2022/08/09 04:47:23;;;;;;;15.25;9.20;;;;;;;-148.88;100.00;76541.03;4996205;28;20373;-83
2022/08/09 04:49:48;;;;;;;15.35;9.32;;;;;;;-148.88;100.00;76549.16;4997095;28;20054;-83
2022/08/09 04:52:14;;;;;;;19.70;10.10;;;;;;;-148.88;100.00;76547.13;4996543;28;20026;-82
2022/08/09 04:54:39;;;;;;;15.55;9.65;;;;;;;-148.88;100.00;76547.13;4998065;28;20030;-82
2022/08/09 04:57:04;;;;;;;17.27;9.73;;;;;;;-148.88;100.00;76551.19;4996290;28;20030;-82
2022/08/09 04:59:30;;;;;;;15.40;9.13;;;;;;;-148.88;100.00;76549.16;4996536;28;20022;-82
2022/08/09 05:01:55;;;;;;;12.55;9.52;;;;;;;-148.88;100.00;76553.22;4996494;28;20546;-82
2022/08/09 05:04:21;;;;;;;15.35;10.25;;;;;;;-148.88;100.00;76549.16;4996171;28;20022;-83
2022/08/09 05:06:46;;;;;;;15.70;10.35;;;;;;;-148.88;100.00;76553.22;4995979;28;20026;-83
2022/08/09 05:09:11;;;;;;;16.02;10.68;;;;;;;-148.88;100.00;76549.16;4996069;28;20120;-83
2022/08/09 05:11:36;;;;;;;21.67;12.35;;;;;;;-148.88;100.00;76553.22;4996185;28;20034;-83
2022/08/09 05:14:03;;;;;;;21.67;12.32;;;;;;;-148.88;100.00;76545.09;4995480;28;20030;-82
2022/08/09 05:16:29;;;;;;;22.25;13.27;;;;;;;-148.88;100.00;76545.09;4995763;28;20053;-82
2022/08/09 05:18:54;;;;;;;24.63;13.20;;;;;;;-148.88;100.00;76543.06;4995702;28;20378;-82
2022/08/09 05:21:20;;;;;;;24.17;15.18;;;;;;;-148.88;100.00;76539.00;4996727;28;20113;-82
2022/08/09 05:23:45;;;;;;;25.65;14.90;;;;;;;-148.88;100.00;76532.91;4996145;28;20389;-83
2022/08/09 05:26:10;;;;;;;24.60;14.68;;;;;;;-148.88;100.00;76518.69;4995587;28;20026;-82
2022/08/09 05:28:36;;;;;;;22.98;14.98;;;;;;;-148.88;100.00;76510.56;4996987;28;20069;-82
2022/08/09 05:31:02;;;;;;;26.17;14.82;;;;;;;-148.88;100.00;76498.38;5003520;23;20096;-73
2022/08/09 05:33:27;;;;;;;22.83;15.45;;;;;;;-148.88;100.00;76492.28;4994578;28;20496;-75
2022/08/09 05:35:52;;;;;;;27.45;15.32;;;;;;;-148.88;100.00;76486.19;4996204;28;20026;-75
2022/08/09 05:38:18;;;;;;;26.02;16.10;;;;;;;-148.88;100.00;76480.09;4995761;28;20581;-76
2022/08/09 05:40:43;;;;;;;26.40;14.65;;;;;;;-148.88;100.00;76463.84;5035218;23;20050;-86
2022/08/09 05:43:08;;;;;;;24.00;14.95;;;;;;;-148.88;100.00;76457.75;4995975;28;20027;-86
2022/08/09 05:45:34;;;;;;;23.95;15.50;;;;;;;-148.88;100.00;76457.75;4995004;28;20026;-85
2022/08/09 05:47:59;;;;;;;24.60;13.98;;;;;;;-148.88;100.00;76447.59;4996131;28;20029;-85
2022/08/09 05:50:24;;;;;;;24.27;15.57;;;;;;;-148.88;100.00;76437.44;4995917;28;20022;-86
2022/08/09 05:52:51;;;;;;;24.85;15.75;;;;;;;-148.88;100.00;76431.34;4995744;28;20112;-86
2022/08/09 05:55:16;;;;;;;25.02;15.18;;;;;;;-148.88;100.00;76427.28;4995839;28;20049;-86
2022/08/09 05:57:42;;;;;;;21.52;15.05;;;;;;;-148.88;100.00;76423.19;4995687;28;20428;-85
2022/08/09 06:00:08;;;;;;;21.35;14.50;;;;;;;-148.88;100.00;76415.06;4995535;28;20022;-86
2022/08/09 06:02:33;;;;;;;21.27;14.45;;;;;;;-148.88;100.00;76408.97;4994135;28;20516;-87
2022/08/09 06:04:59;;;;;;;24.73;15.25;;;;;;;-148.88;100.00;76398.81;4998862;28;20034;-86
2022/08/09 06:07:24;;;;;;;22.55;13.95;;;;;;;-148.88;100.00;76390.69;5000721;28;20027;-88
2022/08/09 06:09:50;;;;;;;21.88;14.63;;;;;;;-148.88;100.00;76390.69;4995372;28;20030;-87
2022/08/09 06:12:15;;;;;;;23.55;15.02;;;;;;;-148.88;100.00;76380.53;4994546;28;20026;-86
2022/08/09 06:14:41;;;;;;;21.33;14.35;;;;;;;-148.88;100.00;76370.38;4995414;28;20030;-86
2022/08/09 06:17:06;;;;;;;22.63;15.25;;;;;;;-148.88;100.00;76358.19;4995504;28;20027;-85
2022/08/09 06:19:32;;;;;;;25.70;14.68;;;;;;;-148.88;100.00;76354.13;4995362;28;20493;-84
2022/08/09 06:21:58;;;;;;;25.30;14.55;;;;;;;-148.88;100.00;76354.13;4995639;28;20022;-85
2022/08/09 06:24:23;;;;;;;21.42;14.38;;;;;;;-148.88;100.00;76343.97;4995218;28;20026;-85
2022/08/09 06:26:49;;;;;;;21.90;14.52;;;;;;;-148.88;100.00;76329.75;4995522;28;20033;-85
2022/08/09 06:29:14;;;;;;;22.00;13.77;;;;;;;-148.88;100.00;76321.63;4995515;28;20034;-85
2022/08/09 06:31:39;;;;;;;20.85;13.82;;;;;;;-148.88;100.00;76317.56;4995027;28;20549;-86
2022/08/09 06:34:05;;;;;;;22.08;13.38;;;;;;;-148.88;100.00;76311.47;4995100;28;20501;-85
2022/08/09 06:36:31;;;;;;;18.38;12.88;;;;;;;-148.88;100.00;76305.38;4995271;28;20034;-85
2022/08/09 06:38:57;;;;;;;19.45;12.60;;;;;;;-148.88;100.00;76299.28;4996129;28;20121;-84
2022/08/09 06:41:23;;;;;;;20.42;13.05;;;;;;;-148.88;100.00;76283.03;4994955;28;20050;-85
2022/08/09 06:43:49;;;;;;;17.60;12.45;;;;;;;-148.88;100.00;76276.94;4995651;28;20033;-87
2022/08/09 06:46:16;;;;;;;18.55;11.90;;;;;;;-148.88;100.00;76264.75;4993519;28;20027;-86
2022/08/09 06:48:42;;;;;;;17.33;10.68;;;;;;;-148.88;100.00;76258.66;4993619;28;20611;-83
2022/08/09 06:51:11;;;;;;;17.90;10.70;;;;;;;-148.88;100.00;76242.41;4994631;28;20105;-85
2022/08/09 06:53:37;;;;;;;15.63;9.90;;;;;;;-148.88;100.00;76232.25;4994768;28;20031;-85
2022/08/09 06:56:03;;;;;;;15.73;9.10;;;;;;;-148.88;100.00;76224.13;4994610;28;20049;-85
2022/08/09 06:58:28;;;;;;;15.57;8.63;;;;;;;-148.88;100.00;76216.00;4993909;28;20109;-85
2022/08/09 07:00:54;;;;;;;12.07;8.32;;;;;;;-148.88;99.69;76205.84;4994778;28;20105;-85
2022/08/09 07:03:21;;;;;;;14.55;7.65;;;;;;;-148.88;98.99;76193.66;4993414;28;20030;-85
2022/08/09 07:05:47;;;;;;;11.38;7.35;;;;;;;-148.88;98.33;76183.50;4994992;28;20026;-85
2022/08/09 07:08:12;;;;;;;9.52;7.03;;;;;;;-148.88;97.62;76167.25;4994674;28;20393;-85
2022/08/09 07:10:37;;;;;;;7.88;5.60;;;;;;;-148.88;96.88;76161.16;4992964;28;20037;-85
2022/08/09 07:13:03;;;;;;;9.55;4.75;;;;;;;-148.88;95.73;76142.88;4995871;28;20109;-85
2022/08/09 07:15:28;;;;;;;8.05;5.72;;;;;;;-148.88;95.62;76126.59;4993099;28;20022;-85
2022/08/09 07:17:53;;;;;;;8.88;4.20;;;;;;;-148.88;90.21;76081.91;4994244;28;20022;-85
2022/08/09 07:20:19;;;;;;;6.95;3.83;;;;;;;-148.88;88.99;76083.94;4994618;28;20042;-86
2022/08/09 07:22:45;;;;;;;5.25;3.63;;;;;;;-148.88;85.41;76059.56;4994594;28;20030;-85
2022/08/09 07:25:11;;;;;;;5.15;3.72;;;;;;;-148.88;85.27;76043.31;4994672;28;20396;-85
2022/08/09 07:27:38;;;;;;;5.05;3.22;;;;;;;-148.88;84.58;76033.16;4994326;28;20054;-85
2022/08/09 07:30:04;;;;;;;5.47;3.30;;;;;;;-148.88;84.80;76020.97;4994074;28;20053;-85
2022/08/09 07:32:30;;;;;;;3.80;2.70;;;;;;;-148.88;83.22;76004.72;4994039;28;20034;-86
2022/08/09 07:34:55;;;;;;;5.00;2.78;;;;;;;-148.88;81.46;75992.53;4994447;28;20149;-86
2022/08/09 07:37:20;;;;;;;4.32;2.85;;;;;;;-148.88;80.14;75972.22;4992608;28;20124;-85
2022/08/09 07:39:46;;;;;;;5.70;3.03;;;;;;;-148.88;80.00;75962.06;4993881;28;20032;-85
2022/08/09 07:42:11;;;;;;;4.75;2.70;;;;;;;-148.88;79.49;75964.09;4994119;28;20529;-85
2022/08/09 07:44:37;;;;;;;5.75;2.60;;;;;;;-148.88;78.07;75917.38;4993903;28;20026;-86
2022/08/09 07:47:02;;;;;;;4.38;2.58;;;;;;;-148.88;76.44;75907.22;4993958;28;20370;-85
2022/08/09 07:49:28;;;;;;;6.43;2.60;;;;;;;-148.88;77.19;75907.22;4994130;28;20022;-84
2022/08/09 07:51:53;;;;;;;3.95;2.55;;;;;;;-148.88;75.72;75901.13;4994158;28;20065;-86
2022/08/09 07:54:18;;;;;;;6.22;2.47;;;;;;;-148.88;75.90;75890.97;4994334;28;20026;-86
2022/08/09 07:56:44;;;;;;;6.68;2.30;;;;;;;-148.88;72.71;75866.59;4992583;28;20076;-86
2022/08/09 07:59:09;;;;;;;4.95;2.72;;;;;;;-148.88;71.44;75838.16;4993558;28;20072;-86
2022/08/09 08:01:34;;;;;;;4.32;2.33;;;;;;;-148.88;69.35;75825.97;4993905;28;20105;-85
2022/08/09 08:04:03;;;;;;;3.13;2.20;;;;;;;-148.88;69.99;75825.97;4993765;28;20401;-86
2022/08/09 08:06:32;;;;;;;6.97;2.50;;;;;;;-148.88;68.40;75803.63;4993670;28;20031;-85
2022/08/09 08:08:57;;;;;;;5.07;2.20;;;;;;;-148.88;67.75;75801.59;4995263;28;20507;-87
2022/08/09 08:11:22;;;;;;;5.15;2.00;;;;;;;-148.88;67.54;75799.56;4996318;28;20592;-87
2022/08/09 08:13:48;;;;;;;4.20;1.90;;;;;;;-148.88;67.25;75773.16;4996291;28;20256;-86
2022/08/09 08:16:13;;;;;;;4.10;1.80;;;;;;;-148.88;65.52;75742.69;4997484;28;20030;-86
2022/08/09 08:18:39;;;;;;;4.05;1.80;;;;;;;-148.88;64.93;75740.66;4997419;28;20109;-86
2022/08/09 08:21:10;;;;;;;4.25;1.70;;;;;;;-148.88;65.48;75728.47;4997317;28;20111;-87
2022/08/09 08:23:35;;;;;;;4.80;1.92;;;;;;;-148.88;65.73;75706.13;4997641;28;20109;-88
2022/08/09 08:26:00;;;;;;;3.95;1.85;;;;;;;-148.88;65.71;75706.13;4997391;28;20058;-87
2022/08/09 08:28:26;;;;;;;4.35;1.50;;;;;;;-148.88;65.81;75695.97;4995940;28;20041;-87
2022/08/09 08:30:51;;;;;;;6.00;1.83;;;;;;;-148.88;63.65;75685.81;4995863;28;20125;-86
2022/08/09 08:33:17;;;;;;;2.05;1.40;;;;;;;-148.88;64.87;75687.84;4997242;28;20022;-88
2022/08/09 08:35:43;;;;;;;6.90;1.55;;;;;;;-148.88;63.97;75683.78;4997137;28;20523;-87
2022/08/09 08:38:08;;;;;;;5.88;1.75;;;;;;;-148.88;63.36;75683.78;4997503;28;20027;-86
2022/08/09 08:40:34;;;;;;;3.28;1.60;;;;;;;-148.88;61.77;75647.22;4997063;28;20047;-87
2022/08/09 08:43:02;;;;;;;3.33;1.42;;;;;;;-148.88;60.93;75637.06;4995948;28;20025;-87
2022/08/09 08:45:43;;;;;;;4.15;1.25;;;;;;;-148.88;61.04;75630.97;4996960;28;20022;-87
2022/08/09 08:48:08;;;;;;;4.55;1.60;;;;;;;-148.88;59.94;75618.78;4997551;28;20441;-87
2022/08/09 08:50:34;;;;;;;3.67;1.55;;;;;;;-148.88;59.50;75594.44;4995654;28;20497;-87
2022/08/09 08:52:59;;;;;;;4.32;1.52;;;;;;;-148.88;59.22;75582.22;4995692;28;20023;-87
2022/08/09 08:55:25;;;;;;;4.45;1.70;;;;;;;-148.88;59.73;75574.13;4995834;28;20547;-88
2022/08/09 08:57:52;;;;;;;7.20;1.55;;;;;;;-148.88;57.15;75555.84;4997294;28;20034;-86
2022/08/09 09:00:18;;;;;;;4.13;1.60;;;;;;;-148.88;58.82;75535.53;4995336;28;20063;-85
2022/08/09 09:02:45;;;;;;;3.58;1.50;;;;;;;-148.88;57.70;75515.22;4996612;28;20030;-86
2022/08/09 09:05:12;;;;;;;4.05;1.77;;;;;;;-148.88;56.75;75494.91;4996781;28;20026;-85
2022/08/09 09:07:38;;;;;;;3.92;1.60;;;;;;;-148.88;55.00;75484.75;4996657;28;20023;-85
2022/08/09 09:10:07;;;;;;;4.45;1.58;;;;;;;-148.88;56.52;75486.78;4996741;28;20026;-84
2022/08/09 09:12:34;;;;;;;4.43;1.70;;;;;;;-148.88;55.20;75480.69;4996487;28;20019;-85
2022/08/09 09:15:00;;;;;;;5.00;1.80;;;;;;;-148.88;54.84;75458.34;4996340;28;20030;-88
2022/08/09 09:17:26;;;;;;;4.68;1.50;;;;;;;-148.88;54.73;75436.00;4995181;28;20030;-87
2022/08/09 09:19:52;;;;;;;4.22;1.70;;;;;;;-148.88;53.38;75438.03;4996138;28;20029;-86
2022/08/09 09:22:19;;;;;;;7.85;2.15;;;;;;;-148.88;54.93;75427.88;4996252;28;20026;-87
2022/08/09 09:24:46;;;;;;;9.32;2.47;;;;;;;-148.88;53.34;75403.50;4995135;28;20129;-87
2022/08/09 09:27:21;;;;;;;4.05;1.80;;;;;;;-148.88;53.01;75387.25;4994905;28;20030;-87
2022/08/09 09:29:47;;;;;;;4.38;1.80;;;;;;;-148.88;51.83;75360.84;4996511;28;20042;-87
2022/08/09 09:32:19;;;;;;;4.95;1.38;;;;;;;-148.88;52.57;75330.38;4994847;28;20085;-87
2022/08/09 09:35:10;;;;;;;3.47;1.70;;;;;;;-148.88;54.07;75314.13;4994997;28;20018;-87
2022/08/09 09:37:39;;;;;;;3.53;1.50;;;;;;;-148.88;52.79;75289.75;4996134;28;20049;-87
2022/08/09 09:40:05;;;;;;;3.03;1.58;;;;;;;-148.88;53.47;75277.59;4996054;28;20400;-86
2022/08/09 09:42:30;;;;;;;4.55;1.70;;;;;;;-148.88;51.38;75255.25;4994634;28;20477;-87
2022/08/09 09:44:58;;;;;;;6.53;1.80;;;;;;;-148.88;52.02;75241.03;4996267;28;20061;-87
2022/08/09 09:47:23;;;;;;;5.05;1.90;;;;;;;-148.88;50.19;75232.91;4995749;28;20485;-86
2022/08/09 09:49:51;;;;;;;6.68;2.08;;;;;;;-148.88;49.55;75214.63;4994399;28;20045;-87
2022/08/09 09:52:17;;;;;;;5.22;2.00;;;;;;;-148.88;49.59;75216.66;4995650;28;20026;-87
2022/08/09 09:54:46;;;;;;;6.70;2.08;;;;;;;-148.88;48.55;75224.78;4995670;28;20049;-88
2022/08/09 09:57:22;;;;;;;4.63;1.73;;;;;;;-148.88;48.35;75208.53;4994655;28;20030;-87
2022/08/09 09:59:50;;;;;;;3.55;1.85;;;;;;;-148.88;48.91;75192.28;4994572;28;20026;-87
2022/08/09 10:02:17;;;;;;;9.50;2.10;;;;;;;-148.88;50.41;75139.47;4995512;28;20411;-87
2022/08/09 10:04:43;;;;;;;4.18;1.92;;;;;;;-148.88;47.91;75125.25;4994314;28;20108;-87
2022/08/09 10:07:44;;;;;;;4.57;1.70;;;;;;;-148.88;46.24;75098.84;4994657;28;20037;-88
2022/08/09 10:10:10;;;;;;;4.43;2.03;;;;;;;-148.88;46.38;75104.94;4995637;28;20022;-88
2022/08/09 10:12:39;;;;;;;3.75;1.67;;;;;;;-148.88;46.71;75096.81;4994331;28;20393;-86
2022/08/09 10:15:14;;;;;;;5.35;2.05;;;;;;;-148.88;46.94;75058.25;4995371;28;20022;-86
2022/08/09 10:17:40;;;;;;;9.10;2.00;;;;;;;-148.88;43.86;75076.53;4995550;28;20112;-87
2022/08/09 10:20:22;;;;;;;5.78;1.85;;;;;;;-148.88;45.17;75062.31;4995433;28;20072;-86
2022/08/09 10:22:52;;;;;;;3.67;1.60;;;;;;;-148.88;44.26;75027.78;4995615;28;20069;-88
2022/08/09 10:25:17;;;;;;;2.90;1.90;;;;;;;-148.88;44.01;75025.75;4993994;28;20041;-87
2022/08/09 10:27:45;;;;;;;3.95;1.77;;;;;;;-148.88;42.75;74985.13;4995020;28;20469;-87
2022/08/09 10:30:11;;;;;;;3.83;1.98;;;;;;;-148.88;42.93;74981.06;4994769;28;20142;-87
2022/08/09 10:32:39;;;;;;;4.38;1.73;;;;;;;-148.88;41.71;75015.59;4994804;28;20032;-87
2022/08/09 10:35:06;;;;;;;6.35;2.20;;;;;;;-148.88;42.84;74956.69;4994800;28;20026;-87
2022/08/09 10:37:31;;;;;;;3.75;2.05;;;;;;;-148.88;42.49;75001.38;4994897;28;20113;-86
2022/08/09 10:40:00;;;;;;;3.95;1.73;;;;;;;-148.88;42.12;74956.69;4994378;28;20157;-87
2022/08/09 10:42:26;;;;;;;4.38;1.70;;;;;;;-148.88;42.31;74914.06;4995125;28;20022;-89
2022/08/09 10:44:59;;;;;;;4.90;1.60;;;;;;;-148.88;42.33;74879.53;4994686;28;20404;-86
2022/08/09 10:47:47;;;;;;;4.00;2.05;;;;;;;-148.88;41.47;74938.44;4994027;28;20096;-87
2022/08/09 10:53:54;;;;;;;4.32;1.60;;;;;;;-148.88;42.36;74887.66;4994775;28;20049;-86
2022/08/09 10:56:24;;;;;;;3.95;1.73;;;;;;;-148.88;41.78;74859.22;4993181;28;20022;-88
2022/08/09 10:58:51;;;;;;;2.92;1.80;;;;;;;-148.88;40.51;74863.28;4994581;28;20089;-85
2022/08/09 11:01:39;;;;;;;3.97;2.08;;;;;;;-148.88;41.79;74826.72;4994232;28;20033;-86
2022/08/09 11:04:08;;;;;;;5.78;2.13;;;;;;;-148.88;39.47;74810.50;4994067;28;20368;-87
2022/08/09 11:07:00;;;;;;;5.40;2.30;;;;;;;-148.88;39.16;74838.91;4994019;28;20355;-87
2022/08/09 11:09:46;;;;;;;3.33;2.05;;;;;;;-148.88;39.97;74875.47;4956867;28;20046;-88
2022/08/09 11:12:18;;;;;;;4.80;2.22;;;;;;;-148.88;39.36;74847.03;4979642;28;20091;-87
2022/08/09 11:15:21;;;;;;;4.50;2.40;;;;;;;-148.88;38.65;74802.38;4993736;28;20527;-88
2022/08/09 11:17:52;;;;;;;4.60;1.77;;;;;;;-148.88;39.73;74877.50;4969283;28;20037;-87
2022/08/09 11:20:19;;;;;;;4.85;2.22;;;;;;;-148.88;40.41;74822.66;4994144;28;20097;-88